Time;durP1;ratioP1;P1;durP2;ratioP2;P2;SDS_P1;SDS_P2;PMS_P1;PMS_P2;Temp;Humidity;BMP_temperature;BMP_pressure;BME280_temperature;BME280_humidity;BME280_pressure;Samples;Min_cycle;Max_cycle;Signal;HPM_P1;HPM_P2
2022/01/03 00:08:56;;;;;;;0.70;0.20;;;3.80;87.00;;;;;;20220929;29;20144;-53
2022/01/03 00:20:52;;;;;;;0.63;0.32;;;3.80;88.10;;;;;;20218723;29;20287;-51
2022/01/03 00:32:59;;;;;;;0.65;0.20;;;3.60;87.20;;;;;;20074459;29;20138;-51
2022/01/03 00:44:38;;;;;;;0.70;0.20;;;3.40;88.50;;;;;;20026052;29;20050;-52
2022/01/03 01:07:44;;;;;;;0.63;0.22;;;3.10;90.00;;;;;;19907883;29;20070;-51
2022/01/03 01:19:45;;;;;;;0.82;0.20;;;3.00;90.00;;;;;;19956601;29;20194;-54
2022/01/03 01:31:13;;;;;;;0.20;0.10;;;2.80;90.10;;;;;;19853289;29;20082;-51
2022/01/03 01:42:36;;;;;;;1.15;0.20;;;2.70;90.10;;;;;;19979431;29;20046;-51
2022/01/03 01:54:37;;;;;;;0.40;0.20;;;2.60;90.20;;;;;;19988758;29;20077;-54
2022/01/03 02:06:15;;;;;;;1.67;0.40;;;2.40;90.50;;;;;;19982898;29;20086;-52
2022/01/03 02:17:49;;;;;;;0.30;0.20;;;2.30;91.10;;;;;;20148597;29;20072;-51
2022/01/03 02:29:12;;;;;;;0.98;0.32;;;2.40;91.20;;;;;;20367422;29;20162;-51
2022/01/03 02:40:45;;;;;;;3.38;0.30;;;2.40;91.30;;;;;;20317968;29;20040;-53
2022/01/03 02:52:35;;;;;;;1.10;0.30;;;2.30;91.50;;;;;;20314606;29;20142;-51
2022/01/03 03:04:33;;;;;;;1.02;0.38;;;2.40;91.40;;;;;;20280861;29;20151;-52
2022/01/03 03:16:25;;;;;;;0.50;0.30;;;2.30;91.40;;;;;;20442089;29;20067;-52
2022/01/03 03:28:43;;;;;;;0.82;0.30;;;2.10;92.00;;;;;;20403990;29;20067;-53
2022/01/03 03:40:38;;;;;;;0.57;0.32;;;1.70;92.90;;;;;;20296618;29;20127;-57
2022/01/03 03:52:58;;;;;;;0.90;0.40;;;1.70;92.80;;;;;;20417743;28;20078;-52
2022/01/03 04:05:02;;;;;;;1.00;0.32;;;2.10;92.10;;;;;;20415989;29;20036;-54
2022/01/03 04:16:58;;;;;;;1.00;0.30;;;2.20;92.20;;;;;;20411456;29;20071;-51
2022/01/03 04:29:04;;;;;;;0.73;0.30;;;2.30;92.10;;;;;;20475069;28;20047;-56
2022/01/03 04:40:22;;;;;;;;;;;2.10;92.30;;;;;;20310071;29;20040;-53
2022/01/03 04:51:45;;;;;;;0.98;0.30;;;2.20;92.10;;;;;;20301056;29;19915;-51
2022/01/03 05:03:45;;;;;;;1.02;0.40;;;2.20;91.70;;;;;;20316194;29;20076;-51
2022/01/03 05:15:41;;;;;;;0.57;0.15;;;2.30;91.60;;;;;;20334708;29;20464;-51
2022/01/03 05:40:06;;;;;;;0.40;0.22;;;2.00;91.90;;;;;;20173497;29;20451;-53
2022/01/03 05:51:33;;;;;;;0.50;0.20;;;1.90;92.10;;;;;;20248633;29;20068;-53
2022/01/03 06:03:07;;;;;;;0.70;0.30;;;1.90;92.00;;;;;;20277038;29;20045;-53
2022/01/03 06:14:55;;;;;;;0.50;0.20;;;1.80;92.60;;;;;;20213885;29;20157;-51
2022/01/03 06:26:25;;;;;;;0.90;0.43;;;1.70;92.60;;;;;;20446396;29;20130;-53
2022/01/03 06:50:38;;;;;;;1.42;0.63;;;2.10;93.10;;;;;;20283590;29;20142;-52
2022/01/03 07:02:11;;;;;;;0.80;0.40;;;2.50;92.70;;;;;;20220670;29;20076;-53
2022/01/03 07:13:42;;;;;;;1.02;0.60;;;2.70;92.40;;;;;;20132497;29;20107;-53
2022/01/03 07:25:33;;;;;;;1.90;0.70;;;2.50;93.00;;;;;;20093903;29;20076;-55
2022/01/03 07:37:24;;;;;;;0.85;0.30;;;2.50;92.70;;;;;;20330158;29;20143;-52
2022/01/03 07:48:47;;;;;;;0.68;0.45;;;2.40;93.30;;;;;;20266399;29;20044;-51
2022/01/03 08:00:09;;;;;;;1.38;0.55;;;2.50;93.50;;;;;;20131714;29;20148;-51
2022/01/03 08:11:54;;;;;;;0.70;0.40;;;3.00;93.30;;;;;;20128981;29;20084;-52
2022/01/03 08:23:16;;;;;;;1.67;0.47;;;3.80;92.60;;;;;;20004431;29;20146;-55
2022/01/03 08:35:18;;;;;;;1.15;0.60;;;4.20;91.20;;;;;;19949186;29;20078;-52
2022/01/03 08:47:07;;;;;;;1.13;0.40;;;4.10;91.30;;;;;;19884189;29;20135;-51
2022/01/03 08:58:30;;;;;;;1.25;0.57;;;5.60;90.50;;;;;;19807781;29;20147;-57
2022/01/03 09:10:30;;;;;;;0.80;0.43;;;7.00;86.80;;;;;;19688394;30;20148;-54
2022/01/03 09:22:27;;;;;;;2.17;0.47;;;7.30;84.60;;;;;;19764574;29;20544;-54
2022/01/03 09:34:38;;;;;;;1.90;0.82;;;6.90;83.50;;;;;;19646009;30;20064;-55
2022/01/03 09:46:39;;;;;;;3.33;0.82;;;6.70;85.40;;;;;;19765517;29;20127;-54
2022/01/03 09:58:10;;;;;;;2.05;0.60;;;6.50;84.80;;;;;;19869056;29;20127;-56
2022/01/03 10:09:52;;;;;;;1.40;0.73;;;6.90;85.10;;;;;;19817442;29;20110;-53
2022/01/03 10:21:14;;;;;;;2.13;1.33;;;7.00;84.50;;;;;;19767753;29;20476;-52
2022/01/03 10:32:48;;;;;;;2.67;1.50;;;7.20;85.50;;;;;;19869847;29;20172;-51
2022/01/03 10:44:37;;;;;;;4.10;2.00;;;7.80;86.40;;;;;;19944664;29;20175;-53
2022/01/03 10:56:33;;;;;;;3.38;1.88;;;8.40;84.90;;;;;;19972486;29;20093;-56
2022/01/03 11:20:19;;;;;;;2.97;1.95;;;9.20;84.20;;;;;;20031084;29;20535;-52
2022/01/03 11:31:54;;;;;;;3.63;2.10;;;9.20;82.80;;;;;;20014223;29;20146;-52
2022/01/03 11:43:41;;;;;;;3.85;2.42;;;9.30;84.60;;;;;;19960570;29;20093;-54
2022/01/03 11:55:40;;;;;;;4.22;2.38;;;9.20;81.80;;;;;;20018394;29;20697;-56
2022/01/03 12:07:33;;;;;;;6.97;3.53;;;8.60;84.90;;;;;;20044878;29;20428;-56
2022/01/03 12:19:35;;;;;;;5.18;3.70;;;9.00;85.00;;;;;;20026535;29;20089;-56
2022/01/03 12:30:56;;;;;;;7.55;4.35;;;8.50;87.10;;;;;;20042804;29;20069;-56
2022/01/03 12:42:51;;;;;;;8.27;4.30;;;8.20;88.30;;;;;;20025807;29;20118;-55
2022/01/03 12:54:36;;;;;;;6.78;4.63;;;8.20;88.30;;;;;;20026769;29;20089;-56
2022/01/03 13:06:31;;;;;;;8.73;5.20;;;8.50;89.90;;;;;;19908793;29;20124;-57
2022/01/03 13:17:54;;;;;;;7.93;5.03;;;8.30;90.10;;;;;;20025430;29;20093;-57
2022/01/03 13:30:06;;;;;;;11.15;6.20;;;7.90;90.90;;;;;;20179878;29;20112;-52
2022/01/03 13:41:45;;;;;;;10.43;6.38;;;7.40;92.10;;;;;;20309150;29;20044;-51
2022/01/03 13:53:45;;;;;;;14.35;8.27;;;7.00;92.10;;;;;;20263719;29;20472;-55
2022/01/03 14:05:54;;;;;;;14.70;8.75;;;6.10;94.90;;;;;;20174634;29;20080;-56
2022/01/03 14:17:58;;;;;;;15.35;8.88;;;5.50;96.60;;;;;;20202110;29;20565;-55
2022/01/03 14:42:10;;;;;;;15.85;9.43;;;5.20;98.30;;;;;;19960390;29;20230;-53
2022/01/03 14:53:50;;;;;;;16.95;8.48;;;4.90;99.70;;;;;;20015895;29;20142;-53
2022/01/03 15:05:15;;;;;;;17.00;10.57;;;4.30;99.90;;;;;;20041984;29;20128;-53
2022/01/03 15:16:46;;;;;;;17.25;9.43;;;3.70;99.90;;;;;;20078194;29;20073;-52
2022/01/03 15:28:10;;;;;;;17.05;9.30;;;3.10;99.90;;;;;;19945485;29;20127;-54
2022/01/03 15:40:21;;;;;;;19.63;9.25;;;2.50;99.90;;;;;;19878359;29;20070;-54
2022/01/03 15:52:11;;;;;;;18.55;9.07;;;2.00;99.90;;;;;;19955149;29;20468;-53
2022/01/03 16:03:44;;;;;;;15.52;8.65;;;1.70;99.90;;;;;;19938663;29;20487;-53
2022/01/03 16:15:07;;;;;;;17.30;9.15;;;1.60;99.90;;;;;;19800179;29;20426;-55
2022/01/03 16:26:40;;;;;;;28.27;12.80;;;1.30;99.90;;;;;;19866816;29;20108;-52
2022/01/03 16:38:03;;;;;;;31.00;14.25;;;1.00;99.90;;;;;;19875445;29;20111;-53
2022/01/03 16:49:36;;;;;;;21.92;10.20;;;0.80;99.90;;;;;;19875538;29;20086;-57
2022/01/03 17:01:26;;;;;;;21.95;11.38;;;0.60;99.90;;;;;;19800839;29;20620;-55
2022/01/03 17:13:20;;;;;;;19.25;8.07;;;0.40;99.90;;;;;;19649551;30;20550;-53
2022/01/03 17:25:01;;;;;;;;;;;0.80;99.90;;;;;;19692413;30;20183;-53
2022/01/03 17:36:36;;;;;;;187.45;21.23;;;0.70;99.90;;;;;;19744955;30;20023;-57
2022/01/03 17:47:57;;;;;;;81.18;23.98;;;0.40;99.90;;;;;;19797166;29;20509;-52
2022/01/03 18:11:15;;;;;;;306.10;22.88;;;0.20;99.90;;;;;;20238281;29;20075;-51
2022/01/03 18:23:03;;;;;;;43.00;17.85;;;1.00;99.90;;;;;;20343128;29;20095;-53
2022/01/03 18:34:55;;;;;;;24.88;11.68;;;1.10;99.90;;;;;;20289026;29;20075;-55
2022/01/03 18:46:27;;;;;;;29.15;12.63;;;0.50;99.90;;;;;;20246950;29;20080;-53
2022/01/03 18:58:16;;;;;;;98.95;22.58;;;0.50;99.90;;;;;;20050463;29;20197;-54
2022/01/03 19:10:11;;;;;;;41.67;15.27;;;0.30;99.90;;;;;;20026556;29;20146;-52
2022/01/03 19:22:18;;;;;;;38.08;13.70;;;0.50;99.90;;;;;;19940533;29;20539;-52
2022/01/03 19:46:09;;;;;;;186.57;18.52;;;0.60;99.90;;;;;;20013868;29;20077;-52
2022/01/03 19:58:00;;;;;;;28.75;12.52;;;0.70;99.90;;;;;;20014272;29;20070;-53
2022/01/03 20:09:23;;;;;;;30.73;11.68;;;0.40;99.90;;;;;;20012955;29;20081;-55
2022/01/03 20:20:56;;;;;;;25.88;10.68;;;0.60;99.90;;;;;;20137824;29;20072;-54
2022/01/03 20:32:19;;;;;;;30.17;12.23;;;0.90;99.90;;;;;;20154681;29;20076;-52
2022/01/03 20:44:20;;;;;;;36.55;14.13;;;1.20;99.90;;;;;;20100727;29;20086;-53
2022/01/03 20:56:25;;;;;;;29.65;12.60;;;1.40;99.90;;;;;;20103996;29;20510;-55
2022/01/03 21:07:55;;;;;;;35.92;13.93;;;1.40;99.90;;;;;;20102244;29;20136;-56
2022/01/03 21:19:28;;;;;;;152.52;18.30;;;1.30;99.90;;;;;;20179016;29;20077;-51
2022/01/03 21:31:17;;;;;;;56.67;15.68;;;1.60;99.90;;;;;;20176853;29;20177;-52
2022/01/03 21:42:46;;;;;;;36.45;13.65;;;1.70;99.90;;;;;;20244064;29;20057;-53
2022/01/03 22:05:53;;;;;;;28.38;11.55;;;1.70;99.90;;;;;;20329633;29;20075;-54
2022/01/03 22:17:16;;;;;;;211.88;16.42;;;1.60;99.90;;;;;;20405341;29;20518;-52
2022/01/03 22:28:49;;;;;;;118.40;15.75;;;1.70;99.90;;;;;;20376673;29;20153;-52
2022/01/03 22:52:50;;;;;;;39.83;10.80;;;1.80;99.90;;;;;;20565251;28;20114;-55
2022/01/03 23:04:24;;;;;;;28.02;10.70;;;1.70;99.90;;;;;;20557354;28;20700;-55
2022/01/03 23:15:57;;;;;;;374.42;27.92;;;1.70;99.90;;;;;;20401937;29;20158;-52
2022/01/03 23:27:46;;;;;;;33.42;11.63;;;1.70;99.90;;;;;;20324386;29;20124;-53
2022/01/03 23:39:52;;;;;;;37.78;13.55;;;1.70;99.90;;;;;;20320599;29;20085;-52
2022/01/03 23:51:49;;;;;;;26.05;10.27;;;1.70;99.90;;;;;;20198484;29;20125;-55
